Time;durP1;ratioP1;P1;durP2;ratioP2;P2;SDS_P1;SDS_P2;PMS_P1;PMS_P2;Temp;Humidity;BMP_temperature;BMP_pressure;BME280_temperature;BME280_humidity;BME280_pressure;Samples;Min_cycle;Max_cycle;Signal;HPM_P1;HPM_P2
2024/03/22 00:04:41;;;;;;;28.05;16.50;;;9.00;99.90;;;;;;12523085;28;20409;-84
2024/03/22 00:10:42;;;;;;;29.77;17.25;;;9.10;99.90;;;;;;12524056;28;20056;-83
2024/03/22 00:16:43;;;;;;;29.83;17.42;;;9.10;99.90;;;;;;12490266;28;20064;-81
2024/03/22 00:22:44;;;;;;;28.00;17.02;;;9.10;99.90;;;;;;12530685;28;20049;-83
2024/03/22 00:28:45;;;;;;;32.67;17.67;;;9.20;99.90;;;;;;12512868;28;20053;-83
2024/03/22 00:34:46;;;;;;;32.28;18.45;;;9.20;99.90;;;;;;12507837;28;20053;-84
2024/03/22 00:40:47;;;;;;;35.17;18.65;;;9.20;99.90;;;;;;12510252;28;20147;-82
2024/03/22 00:46:48;;;;;;;35.03;18.80;;;9.20;99.90;;;;;;12527858;28;20041;-82
2024/03/22 00:52:51;;;;;;;34.33;19.88;;;9.20;99.90;;;;;;12511797;28;20064;-79
2024/03/22 00:58:52;;;;;;;31.60;17.73;;;9.30;99.90;;;;;;12498759;28;20417;-79
2024/03/22 01:04:53;;;;;;;34.03;19.27;;;9.30;99.90;;;;;;12503719;28;20045;-80
2024/03/22 01:10:54;;;;;;;37.65;21.02;;;9.30;99.90;;;;;;12497393;28;20055;-78
2024/03/22 01:16:55;;;;;;;37.08;19.98;;;9.30;99.90;;;;;;12527385;28;20514;-82
2024/03/22 01:22:56;;;;;;;37.97;19.77;;;9.40;99.90;;;;;;12533154;28;20094;-80
2024/03/22 01:28:57;;;;;;;43.10;20.17;;;9.30;99.90;;;;;;12517662;28;20114;-78
2024/03/22 01:34:58;;;;;;;39.47;19.75;;;9.30;99.90;;;;;;12510039;28;20053;-79
2024/03/22 01:40:59;;;;;;;39.50;21.25;;;9.30;99.90;;;;;;12499425;28;20048;-79
2024/03/22 01:47:00;;;;;;;38.75;19.98;;;9.30;99.90;;;;;;12520476;28;20670;-80
2024/03/22 01:53:01;;;;;;;36.10;19.85;;;9.40;99.90;;;;;;12498145;28;20056;-85
2024/03/22 01:59:04;;;;;;;36.33;20.17;;;9.40;99.90;;;;;;12505924;28;20047;-84
2024/03/22 02:05:21;;;;;;;39.45;20.52;;;9.40;99.90;;;;;;12500845;28;20052;-79
2024/03/22 02:11:23;;;;;;;40.55;20.77;;;9.30;99.90;;;;;;12507110;28;20528;-78
2024/03/22 02:17:23;;;;;;;43.35;20.80;;;9.30;99.90;;;;;;12519851;28;20056;-79
2024/03/22 02:23:35;;;;;;;41.13;21.02;;;9.40;99.90;;;;;;12526094;28;20420;-79
2024/03/22 02:29:36;;;;;;;37.40;19.70;;;9.40;99.90;;;;;;12505744;28;20056;-81
2024/03/22 02:35:37;;;;;;;40.85;20.30;;;9.40;99.90;;;;;;12483432;28;20078;-80
2024/03/22 02:41:37;;;;;;;39.83;19.77;;;9.40;99.90;;;;;;12570184;28;20059;-81
2024/03/22 02:47:38;;;;;;;40.15;19.90;;;9.50;99.90;;;;;;12535991;28;20059;-80
2024/03/22 02:53:39;;;;;;;40.55;19.92;;;9.50;99.90;;;;;;12561314;28;20570;-80
2024/03/22 02:59:40;;;;;;;38.78;20.88;;;9.60;99.90;;;;;;12514268;28;20092;-79
2024/03/22 03:05:42;;;;;;;40.80;20.60;;;9.60;99.90;;;;;;12452486;28;20466;-83
2024/03/22 03:11:43;;;;;;;36.60;19.73;;;9.60;99.90;;;;;;12459120;28;20049;-79
2024/03/22 03:17:44;;;;;;;41.83;20.05;;;9.50;99.90;;;;;;12450814;28;20065;-80
2024/03/22 03:23:44;;;;;;;41.25;20.77;;;9.60;99.90;;;;;;12465039;28;20124;-80
2024/03/22 03:29:45;;;;;;;41.50;21.58;;;9.50;99.90;;;;;;12461324;28;20068;-80
2024/03/22 03:35:47;;;;;;;40.08;20.90;;;9.50;99.90;;;;;;12445132;28;20061;-79
2024/03/22 03:41:48;;;;;;;38.85;18.67;;;9.50;99.90;;;;;;12439780;28;20057;-80
2024/03/22 03:47:49;;;;;;;42.90;21.33;;;9.50;99.90;;;;;;12452338;28;20478;-79
2024/03/22 03:53:49;;;;;;;46.97;21.17;;;9.50;99.90;;;;;;12462544;28;20115;-83
2024/03/22 03:59:51;;;;;;;39.88;19.20;;;9.50;99.90;;;;;;12483279;28;20749;-80
2024/03/22 04:05:58;;;;;;;37.78;19.30;;;9.50;99.90;;;;;;12500613;28;20099;-79
2024/03/22 04:11:59;;;;;;;45.10;21.48;;;9.50;99.90;;;;;;12509505;28;20057;-83
2024/03/22 04:18:00;;;;;;;39.92;20.15;;;9.50;99.90;;;;;;12506529;28;20057;-84
2024/03/22 04:24:01;;;;;;;41.60;20.80;;;9.60;99.90;;;;;;12496423;28;20099;-80
2024/03/22 04:30:03;;;;;;;41.17;19.80;;;9.60;99.90;;;;;;12504328;28;20497;-81
2024/03/22 04:36:04;;;;;;;41.08;19.50;;;9.60;99.90;;;;;;12523311;28;20060;-84
2024/03/22 04:42:05;;;;;;;40.83;19.92;;;9.60;99.90;;;;;;12511602;28;20049;-84
2024/03/22 04:48:06;;;;;;;40.55;18.92;;;9.50;99.90;;;;;;12523006;28;20048;-84
2024/03/22 04:54:07;;;;;;;40.60;19.52;;;9.50;99.90;;;;;;12517593;28;20056;-85
2024/03/22 05:00:08;;;;;;;43.58;18.73;;;9.50;99.90;;;;;;12495746;28;20560;-84
2024/03/22 05:06:09;;;;;;;35.28;17.63;;;9.50;99.90;;;;;;12499441;28;20052;-83
2024/03/22 05:12:10;;;;;;;36.10;17.73;;;9.50;99.90;;;;;;12506837;28;20484;-84
2024/03/22 05:18:11;;;;;;;40.25;18.30;;;9.60;99.90;;;;;;12527375;28;20110;-83
2024/03/22 05:24:12;;;;;;;37.42;17.77;;;9.60;99.90;;;;;;12513577;28;20611;-83
2024/03/22 05:30:13;;;;;;;38.63;18.08;;;9.80;99.90;;;;;;12512235;28;20052;-85
2024/03/22 05:36:14;;;;;;;39.42;17.48;;;9.80;99.90;;;;;;12499648;28;20449;-85
2024/03/22 05:42:15;;;;;;;39.22;17.83;;;9.80;99.90;;;;;;12510178;28;20053;-84
2024/03/22 05:48:16;;;;;;;39.10;17.35;;;9.90;99.90;;;;;;12505034;28;20061;-85
2024/03/22 05:54:17;;;;;;;33.38;17.23;;;9.90;99.90;;;;;;12502184;28;20060;-83
2024/03/22 06:00:18;;;;;;;36.50;16.90;;;10.00;99.90;;;;;;12497408;28;20065;-85
2024/03/22 06:06:24;;;;;;;37.20;17.50;;;10.00;99.90;;;;;;12524332;28;20044;-85
2024/03/22 06:12:25;;;;;;;33.45;16.95;;;10.00;99.90;;;;;;12519704;28;20057;-85
2024/03/22 06:18:26;;;;;;;34.78;17.08;;;10.10;99.90;;;;;;12512653;28;20049;-86
2024/03/22 06:24:27;;;;;;;35.88;16.75;;;10.10;99.90;;;;;;12527991;28;20076;-86
2024/03/22 06:30:28;;;;;;;38.38;16.83;;;10.20;99.90;;;;;;12521749;28;20136;-88
2024/03/22 06:36:32;;;;;;;31.20;15.23;;;10.30;99.90;;;;;;12507552;28;20398;-86
2024/03/22 06:42:33;;;;;;;30.43;16.77;;;10.30;99.90;;;;;;12495887;28;20084;-87
2024/03/22 06:48:34;;;;;;;30.80;15.65;;;10.40;99.90;;;;;;12516281;28;20202;-87
2024/03/22 06:54:35;;;;;;;32.67;15.57;;;10.40;99.90;;;;;;12498757;28;20564;-87
2024/03/22 07:00:36;;;;;;;29.50;15.70;;;10.50;99.90;;;;;;12499329;28;20045;-86
2024/03/22 07:06:37;;;;;;;30.83;15.65;;;10.50;99.90;;;;;;12504812;28;20053;-86
2024/03/22 07:12:38;;;;;;;29.73;15.32;;;10.60;99.90;;;;;;12507769;28;20060;-86
2024/03/22 07:18:39;;;;;;;26.20;14.15;;;10.60;99.90;;;;;;12516895;28;20049;-85
2024/03/22 07:24:40;;;;;;;29.15;15.93;;;10.70;99.90;;;;;;12527628;28;20053;-87
2024/03/22 07:30:42;;;;;;;26.77;14.90;;;10.80;99.90;;;;;;12507574;28;20056;-85
2024/03/22 07:36:42;;;;;;;28.58;14.90;;;10.90;99.90;;;;;;12513064;28;20413;-86
2024/03/22 07:42:43;;;;;;;26.05;15.00;;;11.00;99.90;;;;;;12509226;28;20045;-85
2024/03/22 07:48:44;;;;;;;25.60;15.07;;;11.10;99.90;;;;;;12494132;28;20068;-86
2024/03/22 07:54:45;;;;;;;30.50;16.40;;;11.30;99.90;;;;;;12529592;28;20064;-84
2024/03/22 08:00:47;;;;;;;24.83;14.85;;;11.30;99.90;;;;;;12527578;28;20056;-85
2024/03/22 08:06:50;;;;;;;25.48;14.88;;;11.30;99.90;;;;;;12514740;28;20098;-85
2024/03/22 08:12:52;;;;;;;23.95;14.48;;;11.50;99.90;;;;;;12507500;28;20060;-84
2024/03/22 08:18:53;;;;;;;24.23;14.38;;;11.70;99.90;;;;;;12521715;28;20049;-84
2024/03/22 08:24:55;;;;;;;21.33;14.25;;;11.70;99.90;;;;;;12507841;28;20509;-85
2024/03/22 08:30:57;;;;;;;22.52;15.25;;;11.90;99.90;;;;;;12510616;28;20053;-86
2024/03/22 08:36:58;;;;;;;24.95;16.42;;;11.90;99.90;;;;;;12523560;28;20049;-84
2024/03/22 08:42:59;;;;;;;23.48;16.48;;;12.00;99.90;;;;;;12491783;28;20049;-85
2024/03/22 08:49:00;;;;;;;26.90;17.75;;;12.10;99.90;;;;;;12519757;28;20048;-87
2024/03/22 08:55:01;;;;;;;29.67;18.20;;;12.40;99.90;;;;;;12523558;28;20052;-83
2024/03/22 09:01:02;;;;;;;26.90;18.42;;;12.50;99.90;;;;;;12491720;28;20110;-86
2024/03/22 09:07:04;;;;;;;23.15;17.48;;;12.40;99.90;;;;;;12519447;28;20098;-83
2024/03/22 09:13:05;;;;;;;26.15;18.52;;;12.30;99.90;;;;;;12520156;28;20056;-84
2024/03/22 09:19:06;;;;;;;25.55;17.40;;;12.10;99.90;;;;;;12511760;28;20049;-84
2024/03/22 09:25:07;;;;;;;25.42;16.83;;;12.00;99.90;;;;;;12500983;28;20518;-83
2024/03/22 09:31:08;;;;;;;21.83;15.30;;;12.00;99.90;;;;;;12526482;28;20114;-83
2024/03/22 09:37:09;;;;;;;27.25;16.52;;;12.10;99.90;;;;;;12510275;28;20057;-83
2024/03/22 09:43:17;;;;;;;24.25;16.35;;;12.30;99.90;;;;;;12498436;28;20087;-82
2024/03/22 09:49:19;;;;;;;25.15;15.90;;;12.50;99.90;;;;;;12486402;28;20433;-81
2024/03/22 09:55:23;;;;;;;23.08;14.80;;;12.10;99.90;;;;;;12534420;28;20049;-82
2024/03/22 10:01:25;;;;;;;25.90;15.38;;;11.60;99.90;;;;;;12522043;28;20053;-83
2024/03/22 10:07:26;;;;;;;22.30;14.13;;;11.60;99.90;;;;;;12509606;28;20033;-83
2024/03/22 10:13:27;;;;;;;24.50;14.43;;;11.70;99.90;;;;;;12538518;28;20057;-83
2024/03/22 10:19:27;;;;;;;23.92;15.60;;;11.80;99.90;;;;;;12533642;28;20053;-83
2024/03/22 10:25:29;;;;;;;22.55;12.98;;;12.00;99.90;;;;;;12524059;28;20128;-83
2024/03/22 10:31:30;;;;;;;18.95;12.80;;;12.10;99.90;;;;;;12508295;28;20107;-85
2024/03/22 10:37:32;;;;;;;20.40;12.70;;;12.10;99.90;;;;;;12506984;28;20057;-84
2024/03/22 10:43:35;;;;;;;20.25;13.25;;;12.30;99.90;;;;;;12509459;28;20044;-82
2024/03/22 10:49:37;;;;;;;21.77;13.40;;;12.60;99.90;;;;;;12531768;28;20064;-83
2024/03/22 10:55:43;;;;;;;21.35;14.63;;;12.80;99.90;;;;;;12524584;28;20052;-85
2024/03/22 11:01:46;;;;;;;17.45;12.52;;;12.80;99.90;;;;;;12505323;28;20049;-83
2024/03/22 11:07:48;;;;;;;18.65;11.70;;;12.70;99.90;;;;;;12454554;28;20056;-82
2024/03/22 11:13:49;;;;;;;19.15;12.77;;;12.60;99.90;;;;;;12485926;28;20046;-83
2024/03/22 11:19:49;;;;;;;21.38;12.27;;;12.40;99.90;;;;;;12461156;28;20124;-83
2024/03/22 11:25:51;;;;;;;20.05;12.05;;;12.40;99.90;;;;;;12460706;28;20053;-85
2024/03/22 11:31:52;;;;;;;20.60;12.75;;;12.40;99.90;;;;;;12485061;28;20050;-85
2024/03/22 11:37:53;;;;;;;20.85;11.55;;;12.20;99.90;;;;;;12479421;28;21974;-83
2024/03/22 11:43:55;;;;;;;19.65;11.25;;;12.10;99.90;;;;;;12473348;28;20060;-82
2024/03/22 11:49:56;;;;;;;17.20;11.02;;;12.10;99.90;;;;;;12479045;28;20062;-83
2024/03/22 11:55:57;;;;;;;21.55;12.80;;;12.00;99.90;;;;;;12472588;28;20048;-82
2024/03/22 12:01:59;;;;;;;18.60;11.95;;;11.90;99.90;;;;;;12456697;28;20498;-83
2024/03/22 12:08:00;;;;;;;21.42;12.55;;;11.90;99.90;;;;;;12458085;28;20056;-82
2024/03/22 12:14:01;;;;;;;21.00;12.80;;;11.90;99.90;;;;;;12475770;28;20152;-83
2024/03/22 12:20:03;;;;;;;22.27;12.55;;;11.70;99.90;;;;;;12481506;28;20068;-81
2024/03/22 12:26:04;;;;;;;22.95;13.68;;;11.70;99.90;;;;;;12439813;28;20049;-79
2024/03/22 12:32:06;;;;;;;22.73;13.50;;;11.50;99.90;;;;;;12472944;28;20049;-78
2024/03/22 12:38:13;;;;;;;20.20;13.32;;;11.50;99.90;;;;;;12465484;28;20053;-84
2024/03/22 12:44:14;;;;;;;20.77;12.70;;;11.40;99.90;;;;;;12505324;28;20260;-83
2024/03/22 12:50:15;;;;;;;22.83;13.43;;;11.40;99.90;;;;;;12471421;28;20049;-83
2024/03/22 12:56:16;;;;;;;20.73;13.00;;;11.40;99.90;;;;;;12468253;28;20065;-82
2024/03/22 13:02:17;;;;;;;21.75;14.20;;;11.30;99.90;;;;;;12436929;28;20486;-82
2024/03/22 13:08:19;;;;;;;22.65;13.98;;;11.30;99.90;;;;;;12460915;28;20136;-82
2024/03/22 13:14:20;;;;;;;22.30;13.73;;;11.30;99.90;;;;;;12454094;28;20049;-82
2024/03/22 13:20:20;;;;;;;23.83;14.68;;;11.30;99.90;;;;;;12453058;28;20050;-82
2024/03/22 13:26:21;;;;;;;22.65;14.55;;;11.20;99.90;;;;;;12454472;28;20053;-84
2024/03/22 13:32:22;;;;;;;22.75;14.30;;;11.10;99.90;;;;;;12463660;28;20568;-83
2024/03/22 13:38:23;;;;;;;23.52;14.90;;;11.10;99.90;;;;;;12475097;28;20140;-84
2024/03/22 13:44:24;;;;;;;22.55;14.05;;;11.10;99.90;;;;;;12463606;28;20099;-84
2024/03/22 13:50:27;;;;;;;21.38;14.07;;;11.20;99.90;;;;;;12477061;28;20140;-82
2024/03/22 13:56:28;;;;;;;20.95;13.10;;;11.10;99.90;;;;;;12468227;28;20050;-82
2024/03/22 14:02:31;;;;;;;20.30;13.00;;;11.10;99.90;;;;;;12483971;28;20053;-84
2024/03/22 14:08:32;;;;;;;23.83;13.88;;;11.00;99.90;;;;;;12465761;28;20057;-84
2024/03/22 14:14:33;;;;;;;22.17;13.55;;;11.00;99.90;;;;;;12469850;28;20084;-87
2024/03/22 14:20:34;;;;;;;19.48;12.52;;;10.80;99.90;;;;;;12474157;28;20579;-88
2024/03/22 14:26:41;;;;;;;21.48;11.75;;;10.80;99.90;;;;;;12470249;28;20409;-86
2024/03/22 14:32:43;;;;;;;19.70;11.23;;;10.70;99.90;;;;;;12472573;28;20065;-85
2024/03/22 14:38:44;;;;;;;18.25;11.57;;;10.70;99.90;;;;;;12448236;28;20049;-80
2024/03/22 14:44:45;;;;;;;19.42;11.32;;;10.70;99.90;;;;;;12472526;28;20053;-79
2024/03/22 14:50:47;;;;;;;18.88;12.23;;;10.70;99.90;;;;;;12468003;28;20053;-81
2024/03/22 14:56:48;;;;;;;20.50;13.13;;;10.60;99.90;;;;;;12472069;28;20417;-83
2024/03/22 15:02:49;;;;;;;18.83;12.32;;;10.40;99.90;;;;;;12525103;28;20063;-79
2024/03/22 15:08:49;;;;;;;20.40;12.93;;;10.40;99.90;;;;;;12514214;28;20557;-78
2024/03/22 15:14:53;;;;;;;20.85;12.10;;;10.40;99.90;;;;;;12521614;28;20105;-80
2024/03/22 15:20:54;;;;;;;18.65;12.40;;;10.40;99.90;;;;;;12522189;28;20508;-82
2024/03/22 15:26:55;;;;;;;20.77;12.02;;;10.50;99.90;;;;;;12514498;28;20056;-82
2024/03/22 15:32:56;;;;;;;21.05;12.55;;;10.40;99.90;;;;;;12511680;28;20136;-84
2024/03/22 15:38:57;;;;;;;22.08;13.60;;;10.40;99.90;;;;;;12489430;28;20049;-81
2024/03/22 15:45:02;;;;;;;19.15;12.60;;;10.40;99.90;;;;;;12501256;28;20128;-81
2024/03/22 15:51:04;;;;;;;17.98;12.05;;;10.30;99.90;;;;;;12510385;28;20412;-84
2024/03/22 15:57:05;;;;;;;17.85;11.90;;;10.40;99.90;;;;;;12525021;28;20059;-84
2024/03/22 16:03:05;;;;;;;20.58;12.20;;;10.40;99.90;;;;;;12480328;28;20053;-83
2024/03/22 16:09:11;;;;;;;20.02;13.13;;;10.20;99.90;;;;;;12472755;28;20508;-82
2024/03/22 16:15:11;;;;;;;19.40;12.45;;;10.10;99.90;;;;;;12495005;28;20045;-84
2024/03/22 16:21:13;;;;;;;17.08;10.52;;;10.00;99.90;;;;;;12483465;28;20081;-84
2024/03/22 16:27:14;;;;;;;16.38;10.80;;;10.00;99.90;;;;;;12474565;28;20049;-82
2024/03/22 16:33:15;;;;;;;17.13;10.43;;;10.00;99.90;;;;;;12468017;28;20119;-81
2024/03/22 16:39:16;;;;;;;17.08;10.43;;;10.00;99.90;;;;;;12471305;28;20104;-82
2024/03/22 16:45:20;;;;;;;15.80;10.10;;;9.90;99.90;;;;;;12492151;28;20045;-82
2024/03/22 16:51:21;;;;;;;17.25;9.90;;;9.80;99.90;;;;;;12479871;28;20061;-83
2024/03/22 16:57:22;;;;;;;16.77;10.32;;;9.90;99.90;;;;;;12474216;28;20081;-84
2024/03/22 17:03:23;;;;;;;17.42;10.32;;;9.90;99.90;;;;;;12534552;28;20140;-84
2024/03/22 17:09:24;;;;;;;15.32;9.55;;;9.90;99.90;;;;;;12512057;28;20143;-85
2024/03/22 17:15:26;;;;;;;13.43;8.82;;;9.90;99.90;;;;;;12501772;28;21301;-84
2024/03/22 17:21:26;;;;;;;18.38;8.95;;;9.80;99.90;;;;;;12498880;28;20053;-84
2024/03/22 17:27:27;;;;;;;13.90;9.55;;;9.80;99.90;;;;;;12507648;28;20056;-85
2024/03/22 17:33:28;;;;;;;14.00;8.70;;;9.70;99.90;;;;;;12498227;28;20057;-84
2024/03/22 17:39:31;;;;;;;11.75;8.15;;;9.80;99.90;;;;;;12512377;28;20084;-84
2024/03/22 17:45:32;;;;;;;13.98;8.20;;;9.80;99.90;;;;;;12518499;28;20064;-84
2024/03/22 17:51:32;;;;;;;5.13;4.13;;;9.80;99.90;;;;;;12529851;28;20421;-86
2024/03/22 17:57:33;;;;;;;6.30;3.50;;;9.50;99.90;;;;;;12520874;28;20123;-82
2024/03/22 18:03:34;;;;;;;4.63;3.60;;;9.10;99.90;;;;;;12492893;28;20099;-86
2024/03/22 18:09:36;;;;;;;5.97;3.80;;;8.90;99.90;;;;;;12502036;28;20057;-81
2024/03/22 18:15:40;;;;;;;6.65;4.10;;;8.80;99.90;;;;;;12523402;28;20053;-81
2024/03/22 18:21:41;;;;;;;11.98;8.20;;;8.70;99.90;;;;;;12526267;28;20052;-82
2024/03/22 18:27:42;;;;;;;6.30;4.18;;;8.60;99.90;;;;;;12516754;28;20076;-82
2024/03/22 18:33:43;;;;;;;6.35;3.65;;;8.50;99.90;;;;;;12499028;28;20064;-82
2024/03/22 18:39:46;;;;;;;5.65;3.65;;;8.60;99.90;;;;;;12516872;28;20504;-82
2024/03/22 18:45:47;;;;;;;10.15;3.90;;;8.50;99.90;;;;;;12503855;28;20048;-83
2024/03/22 18:51:48;;;;;;;7.50;3.45;;;8.40;99.90;;;;;;12507242;28;20045;-84
2024/03/22 18:57:49;;;;;;;9.38;3.90;;;8.40;99.90;;;;;;12516347;28;20494;-83
2024/03/22 19:03:50;;;;;;;11.48;4.15;;;8.30;99.90;;;;;;12527343;28;20049;-83
2024/03/22 19:09:50;;;;;;;11.38;3.72;;;8.40;99.90;;;;;;12525662;28;20049;-84
2024/03/22 19:15:56;;;;;;;7.70;4.07;;;8.30;99.90;;;;;;12508278;28;20048;-84
2024/03/22 19:21:57;;;;;;;10.57;4.13;;;8.30;99.90;;;;;;12510566;28;20044;-85
2024/03/22 19:27:58;;;;;;;11.55;4.68;;;8.20;99.90;;;;;;12505232;28;20523;-82
2024/03/22 19:33:59;;;;;;;16.35;4.28;;;8.30;99.90;;;;;;12526555;28;20060;-83
2024/03/22 19:40:00;;;;;;;10.90;4.68;;;8.10;99.90;;;;;;12505460;28;20404;-86
2024/03/22 19:46:02;;;;;;;12.00;5.22;;;8.10;99.90;;;;;;12510306;28;20048;-85
2024/03/22 19:52:05;;;;;;;10.75;4.88;;;8.10;99.90;;;;;;12510632;28;20049;-85
2024/03/22 19:58:06;;;;;;;10.77;5.33;;;8.10;99.90;;;;;;12514470;28;20049;-80
2024/03/22 20:04:07;;;;;;;10.77;4.50;;;8.10;99.90;;;;;;12534400;28;20458;-79
2024/03/22 20:10:08;;;;;;;12.02;4.72;;;8.20;99.90;;;;;;12516113;28;20406;-79
2024/03/22 20:16:09;;;;;;;9.85;4.10;;;8.10;99.90;;;;;;12519283;28;20048;-79
2024/03/22 20:22:10;;;;;;;11.43;4.82;;;8.10;99.90;;;;;;12517491;28;20045;-79
2024/03/22 20:28:11;;;;;;;10.30;4.90;;;8.10;99.90;;;;;;12546538;28;20183;-81
2024/03/22 20:34:12;;;;;;;12.48;5.50;;;8.10;99.90;;;;;;12530342;28;20052;-81
2024/03/22 20:40:14;;;;;;;10.73;4.82;;;8.10;99.90;;;;;;12532080;28;20452;-81
2024/03/22 20:46:16;;;;;;;11.30;5.53;;;8.10;99.90;;;;;;12497309;28;20444;-82
2024/03/22 20:52:18;;;;;;;12.07;5.82;;;8.10;99.90;;;;;;12502895;28;20056;-81
2024/03/22 20:58:19;;;;;;;15.75;6.85;;;8.00;99.90;;;;;;12492102;28;20497;-83
2024/03/22 21:04:21;;;;;;;12.02;6.38;;;7.90;99.90;;;;;;12511120;28;20049;-80
2024/03/22 21:10:23;;;;;;;15.65;7.43;;;8.00;99.90;;;;;;12519680;28;20053;-81
2024/03/22 21:16:25;;;;;;;12.73;6.45;;;8.00;99.90;;;;;;12485910;28;20068;-81
2024/03/22 21:22:27;;;;;;;13.25;7.43;;;7.90;99.90;;;;;;12500793;28;20044;-80
2024/03/22 21:28:29;;;;;;;12.48;7.45;;;7.80;99.90;;;;;;12505045;28;20053;-81
2024/03/22 21:34:34;;;;;;;14.35;8.32;;;7.70;99.90;;;;;;12511991;28;20057;-81
2024/03/22 21:40:37;;;;;;;15.05;8.93;;;7.80;99.90;;;;;;12504719;28;20064;-79
2024/03/22 21:46:39;;;;;;;13.93;8.23;;;7.80;99.90;;;;;;12489223;28;20049;-79
2024/03/22 21:52:42;;;;;;;16.70;8.65;;;7.80;99.90;;;;;;12524239;28;20053;-79
2024/03/22 21:58:44;;;;;;;16.42;9.57;;;7.80;99.90;;;;;;12518062;28;20045;-80
2024/03/22 22:04:46;;;;;;;17.95;8.88;;;7.80;99.90;;;;;;12501811;28;20053;-80
2024/03/22 22:10:48;;;;;;;16.33;8.50;;;7.90;99.90;;;;;;12487062;28;20060;-79
2024/03/22 22:16:50;;;;;;;20.42;9.63;;;7.90;99.90;;;;;;12501195;28;20060;-79
2024/03/22 22:22:52;;;;;;;18.88;9.27;;;7.90;99.90;;;;;;12497618;28;20052;-79
2024/03/22 22:28:54;;;;;;;14.20;8.70;;;7.90;99.90;;;;;;12489773;28;20048;-80
2024/03/22 22:34:56;;;;;;;18.83;9.40;;;7.90;99.90;;;;;;12511662;28;20100;-79
2024/03/22 22:40:57;;;;;;;18.73;9.60;;;7.80;99.90;;;;;;12502344;28;20048;-79
2024/03/22 22:46:59;;;;;;;16.55;9.70;;;7.70;99.90;;;;;;12519181;28;20056;-80
2024/03/22 22:53:01;;;;;;;17.67;9.68;;;7.70;99.90;;;;;;12514067;28;20509;-85
2024/03/22 22:59:03;;;;;;;16.80;9.30;;;7.60;99.90;;;;;;12496432;28;20517;-86
2024/03/22 23:05:05;;;;;;;18.88;9.50;;;7.60;99.90;;;;;;12501346;28;20041;-85
2024/03/22 23:11:07;;;;;;;15.07;9.90;;;7.80;99.90;;;;;;12535928;28;20055;-84
2024/03/22 23:17:09;;;;;;;17.00;9.40;;;7.80;99.90;;;;;;12464782;28;20063;-85
2024/03/22 23:23:11;;;;;;;14.48;8.55;;;7.80;99.90;;;;;;12493423;28;20037;-85
2024/03/22 23:29:13;;;;;;;18.88;9.15;;;7.90;99.90;;;;;;12473482;28;20041;-81
2024/03/22 23:35:14;;;;;;;17.00;8.95;;;7.70;99.90;;;;;;12500767;28;20493;-81
2024/03/22 23:41:17;;;;;;;22.58;8.93;;;7.50;99.90;;;;;;12519403;28;20049;-80
2024/03/22 23:47:19;;;;;;;13.00;7.93;;;7.30;99.90;;;;;;12504130;28;20052;-81
2024/03/22 23:53:21;;;;;;;15.77;8.60;;;7.30;99.90;;;;;;12502550;28;20052;-81
2024/03/22 23:59:23;;;;;;;18.90;8.70;;;7.30;99.90;;;;;;12496864;28;20069;-85
